• Join FlightAware (Why Join?)
  • Login
  • US Flag 
05:20PM EDT


 

Airport Tracker/Info


-or-


 

Live Flight TrackerFlight Track Log ✈ N546QS ✈ 30-May-2013 ✈ KLAX - KAPC

Flight Track Log - Related Links

Times and Time Zones

All times are in EDT time to prevent confusion due to time zone crossing. See the N546QS flight status page for this flight to view local times or setup timezone preferences in your user account.

Time Position Orientation Groundspeed Altitude Reporting Facility
EDT Latitude Longitude Course Direction KTS MPH feet Rate Location/Type
04:33PM 33.9322 -118.4308 325° Northwest 197 227 1,900  Level Los Angeles Center
04:35PM 33.8975 -118.5081 242° Southwest 237 273 5,100 3,240 Climbing Los Angeles Center
04:36PM 33.8492 -118.5778 230° Southwest 252 290 8,700 2,340 Climbing Los Angeles Center
04:37PM 33.8228 -118.6603 249° West 287 330 10,000 1,560 Climbing Los Angeles Center
04:38PM 33.8183 -118.7736 267° West 342 394 12,000 2,040 Climbing Los Angeles Center
04:39PM 34.3522 -118.7574 325° Northwest  Level Estimated
04:39PM 33.8481 -118.8894 287° West 363 418 14,300  Level Los Angeles Center
04:40PM 33.9100 -119.0197 300° West 384 442 17,300 2,700 Climbing Los Angeles Center
04:41PM 33.9869 -119.1147 314° West 395 455 19,900 2,220 Climbing Los Angeles Center
04:42PM 34.0658 -119.2128 314° West 406 467 21,900 1,920 Climbing Los Angeles Center
04:43PM 34.1478 -119.3150 314° West 421 484 23,900 1,920 Climbing Los Angeles Center
04:44PM 34.2303 -119.4189 314° West 428 493 25,900 2,100 Climbing Los Angeles Center
04:45PM 34.3336 -119.5506 314° West 446 513 28,300 1,980 Climbing Los Angeles Center
04:46PM 34.4206 -119.6608 314° West 453 521 30,000 780 Climbing Los Angeles Center
04:47PM 34.5086 -119.7708 314° West 454 522 30,000  Level Los Angeles Center
04:48PM 34.6056 -119.8519 325° Northwest 457 526 30,000  Level Los Angeles Center
04:49PM 34.7339 -119.9561 326° Northwest 462 532 30,000  Level Los Angeles Center
04:50PM 34.8389 -120.0425 326° Northwest 457 526 30,000  Level Los Angeles Center
04:51PM 34.9394 -120.1258 326° Northwest 462 532 30,000  Level Los Angeles Center
04:52PM 35.0442 -120.2133 326° Northwest 462 532 30,000  Level Los Angeles Center
04:53PM 35.1703 -120.3181 326° Northwest 460 529 30,000  Level Los Angeles Center
04:54PM 35.2747 -120.4058 326° Northwest 461 531 30,000  Level Los Angeles Center
04:55PM 35.3781 -120.4961 325° Northwest 464 534 30,000  Level Los Angeles Center
04:56PM 35.4861 -120.5894 325° Northwest 473 544 30,000  Level Los Angeles Center
04:57PM 35.5914 -120.6761 326° Northwest 461 531 30,000  Level Los Angeles Center
04:58PM 35.6519 -120.7286 325° Northwest 464 534 30,000  Level Oakland Center
04:59PM 35.7603 -120.8194 326° Northwest 470 541 30,000  Level Oakland Center
05:00PM 35.8672 -120.9108 325° Northwest 467 537 30,000  Level Oakland Center
05:01PM 35.9967 -121.0225 325° Northwest 470 541 30,000  Level Oakland Center
05:02PM 36.1028 -121.1153 325° Northwest 467 537 30,000  Level Oakland Center
05:03PM 36.2108 -121.2061 326° Northwest 467 537 30,000 -60 Level Oakland Center
05:04PM 36.3167 -121.3000 324° Northwest 468 539 29,900 -420 Descending Oakland Center
05:05PM 36.4231 -121.3897 326° Northwest 461 531 29,200 -720 Descending Oakland Center
05:06PM 36.5269 -121.4811 325° Northwest 456 525 28,500 -600 Descending Oakland Center
05:07PM 36.6286 -121.5725 324° Northwest 450 518 28,000 -300 Descending Oakland Center
05:08PM 36.7397 -121.6492 331° Northwest 453 521 28,000 -60 Level Oakland Center
05:09PM 36.8739 -121.7228 336° Northwest 454 522 27,900 -960 Descending Oakland Center
05:10PM 36.9872 -121.7892 335° Northwest 449 517 26,100 -960 Descending Oakland Center
05:11PM 37.0975 -121.8525 335° Northwest 438 504 26,000 -60 Descending Oakland Center
05:12PM 37.2053 -121.9167 335° Northwest 431 496 26,000 -600 Level Oakland Center
05:13PM 37.3086 -121.9764 335° Northwest 413 475 24,800 -1,920 Descending Oakland Center
05:14PM 37.4078 -122.0344 335° Northwest 396 456 22,100 -3,000 Descending Oakland Center
05:15PM 37.4833 -122.0833 333° Northwest 377 434 19,900 -2,940 Descending Northern Cal TRACON
05:16PM 37.5833 -122.1333 338° Northwest 353 406 17,400 -2,700 Descending Northern Cal TRACON
05:16PM 37.6117 -122.1558 328° Northwest 359 413 16,100 -3,240 Descending Oakland Center
05:17PM 37.6667 -122.1833 338° Northwest 315 362 14,200 -1,500 Descending Northern Cal TRACON
05:19PM 37.8111 -122.3342 320° Northwest 269 310 11,700 -1,260 Descending Oakland Center
05:20PM 37.8586 -122.3919 316° Northwest 242 278 9,800 -1,860 Descending Oakland Center
05:21PM 37.9217 -122.4200 341° North 252 290 7,900 -1,680 Descending Oakland Center
05:22PM 37.9872 -122.4036 11° North 249 287 6,400 -1,440 Descending Oakland Center
05:23PM 38.0478 -122.3656 26° Northeast 246 283 5,000 -1,440 Descending Oakland Center
05:24PM 38.1114 -122.3231 28° Northeast 222 255 3,500 -1,260 Descending Oakland Center
05:25PM 38.1556 -122.2914 29° Northeast 192 221 2,500 -840 Descending Oakland Center
05:26PM 38.1914 -122.2603 34° Northeast 164 189 1,800 -600 Descending Oakland Center
05:27PM 38.2294 -122.2403 22° Northeast 153 176 1,400 -720 Descending Oakland Center
05:29PM 38.2364 -122.2719 286° West 142 163 400 -1,020 Descending Oakland Center